sensor_id;sensor_type;location;lat;lon;timestamp;P1;durP1;ratioP1;P2;durP2;ratioP2
1701;SDS011;848;48.354;10.064;2023-05-10T00:02:06;6.03;;;1.70;;
1701;SDS011;848;48.354;10.064;2023-05-10T00:04:35;6.40;;;2.00;;
1701;SDS011;848;48.354;10.064;2023-05-10T00:07:02;5.93;;;1.60;;
1701;SDS011;848;48.354;10.064;2023-05-10T00:09:29;6.30;;;1.55;;
1701;SDS011;848;48.354;10.064;2023-05-10T00:11:55;6.50;;;2.05;;
1701;SDS011;848;48.354;10.064;2023-05-10T00:14:23;6.10;;;1.73;;
1701;SDS011;848;48.354;10.064;2023-05-10T00:16:50;5.80;;;1.70;;
1701;SDS011;848;48.354;10.064;2023-05-10T00:19:17;7.38;;;1.88;;
1701;SDS011;848;48.354;10.064;2023-05-10T00:21:45;6.25;;;1.88;;
1701;SDS011;848;48.354;10.064;2023-05-10T00:24:12;5.85;;;1.70;;
1701;SDS011;848;48.354;10.064;2023-05-10T00:26:39;5.97;;;1.55;;
1701;SDS011;848;48.354;10.064;2023-05-10T00:29:07;6.50;;;2.13;;
1701;SDS011;848;48.354;10.064;2023-05-10T00:31:34;6.50;;;1.60;;
1701;SDS011;848;48.354;10.064;2023-05-10T00:34:01;5.90;;;1.70;;
1701;SDS011;848;48.354;10.064;2023-05-10T00:36:27;5.82;;;1.67;;
1701;SDS011;848;48.354;10.064;2023-05-10T00:38:56;6.20;;;1.67;;
1701;SDS011;848;48.354;10.064;2023-05-10T00:41:23;5.50;;;1.50;;
1701;SDS011;848;48.354;10.064;2023-05-10T00:43:50;6.20;;;1.40;;
1701;SDS011;848;48.354;10.064;2023-05-10T00:46:17;5.53;;;1.10;;
1701;SDS011;848;48.354;10.064;2023-05-10T00:48:44;5.70;;;1.20;;
1701;SDS011;848;48.354;10.064;2023-05-10T00:51:11;6.50;;;1.73;;
1701;SDS011;848;48.354;10.064;2023-05-10T00:53:39;5.47;;;1.25;;
1701;SDS011;848;48.354;10.064;2023-05-10T00:56:08;5.90;;;1.40;;
1701;SDS011;848;48.354;10.064;2023-05-10T00:58:35;6.15;;;1.58;;
1701;SDS011;848;48.354;10.064;2023-05-10T01:01:02;5.47;;;1.15;;
1701;SDS011;848;48.354;10.064;2023-05-10T01:03:30;11.38;;;1.20;;
1701;SDS011;848;48.354;10.064;2023-05-10T01:05:58;6.63;;;1.50;;
1701;SDS011;848;48.354;10.064;2023-05-10T01:08:25;5.85;;;1.40;;
1701;SDS011;848;48.354;10.064;2023-05-10T01:10:52;5.50;;;1.38;;
1701;SDS011;848;48.354;10.064;2023-05-10T01:13:33;5.28;;;0.93;;
1701;SDS011;848;48.354;10.064;2023-05-10T01:16:02;5.90;;;1.30;;
1701;SDS011;848;48.354;10.064;2023-05-10T01:18:30;6.45;;;1.30;;
1701;SDS011;848;48.354;10.064;2023-05-10T01:21:01;5.70;;;1.35;;
1701;SDS011;848;48.354;10.064;2023-05-10T01:23:43;5.60;;;1.25;;
1701;SDS011;848;48.354;10.064;2023-05-10T01:32:33;5.80;;;1.45;;
1701;SDS011;848;48.354;10.064;2023-05-10T01:35:06;5.57;;;1.25;;
1701;SDS011;848;48.354;10.064;2023-05-10T01:37:40;6.57;;;1.30;;
1701;SDS011;848;48.354;10.064;2023-05-10T01:40:10;5.90;;;1.23;;
1701;SDS011;848;48.354;10.064;2023-05-10T01:42:46;5.35;;;0.93;;
1701;SDS011;848;48.354;10.064;2023-05-10T01:45:18;8.27;;;1.73;;
1701;SDS011;848;48.354;10.064;2023-05-10T01:47:54;6.43;;;0.93;;
1701;SDS011;848;48.354;10.064;2023-05-10T01:50:30;6.55;;;1.00;;
1701;SDS011;848;48.354;10.064;2023-05-10T01:52:59;5.22;;;0.77;;
1701;SDS011;848;48.354;10.064;2023-05-10T01:55:28;5.57;;;0.70;;
1701;SDS011;848;48.354;10.064;2023-05-10T01:58:01;5.15;;;0.90;;
1701;SDS011;848;48.354;10.064;2023-05-10T02:00:31;5.40;;;1.00;;
1701;SDS011;848;48.354;10.064;2023-05-10T02:03:01;5.30;;;0.85;;
1701;SDS011;848;48.354;10.064;2023-05-10T02:05:32;5.30;;;0.70;;
1701;SDS011;848;48.354;10.064;2023-05-10T02:08:02;5.20;;;0.65;;
1701;SDS011;848;48.354;10.064;2023-05-10T02:10:32;4.97;;;0.60;;
1701;SDS011;848;48.354;10.064;2023-05-10T02:13:00;6.22;;;0.75;;
1701;SDS011;848;48.354;10.064;2023-05-10T02:15:29;5.88;;;0.60;;
1701;SDS011;848;48.354;10.064;2023-05-10T02:17:57;5.22;;;0.73;;
1701;SDS011;848;48.354;10.064;2023-05-10T02:20:27;5.30;;;0.55;;
1701;SDS011;848;48.354;10.064;2023-05-10T02:22:56;5.10;;;0.68;;
1701;SDS011;848;48.354;10.064;2023-05-10T02:25:24;5.72;;;0.77;;
1701;SDS011;848;48.354;10.064;2023-05-10T02:27:53;5.75;;;0.60;;
1701;SDS011;848;48.354;10.064;2023-05-10T02:30:22;5.00;;;0.55;;
1701;SDS011;848;48.354;10.064;2023-05-10T02:32:49;5.53;;;0.70;;
1701;SDS011;848;48.354;10.064;2023-05-10T02:35:17;5.05;;;0.68;;
1701;SDS011;848;48.354;10.064;2023-05-10T02:37:47;5.20;;;0.60;;
1701;SDS011;848;48.354;10.064;2023-05-10T02:40:14;5.60;;;0.80;;
1701;SDS011;848;48.354;10.064;2023-05-10T02:42:43;5.85;;;0.50;;
1701;SDS011;848;48.354;10.064;2023-05-10T02:45:13;6.82;;;0.60;;
1701;SDS011;848;48.354;10.064;2023-05-10T02:47:43;6.35;;;0.90;;
1701;SDS011;848;48.354;10.064;2023-05-10T02:50:10;4.70;;;0.38;;
1701;SDS011;848;48.354;10.064;2023-05-10T02:52:39;5.00;;;0.50;;
1701;SDS011;848;48.354;10.064;2023-05-10T02:55:11;4.97;;;0.40;;
1701;SDS011;848;48.354;10.064;2023-05-10T02:57:41;4.85;;;0.40;;
1701;SDS011;848;48.354;10.064;2023-05-10T03:00:11;5.07;;;0.40;;
1701;SDS011;848;48.354;10.064;2023-05-10T03:02:38;4.90;;;0.38;;
1701;SDS011;848;48.354;10.064;2023-05-10T03:05:05;5.60;;;0.47;;
1701;SDS011;848;48.354;10.064;2023-05-10T03:07:32;5.10;;;0.30;;
1701;SDS011;848;48.354;10.064;2023-05-10T03:10:00;4.78;;;0.30;;
1701;SDS011;848;48.354;10.064;2023-05-10T03:12:31;5.95;;;0.50;;
1701;SDS011;848;48.354;10.064;2023-05-10T03:15:09;4.80;;;0.30;;
1701;SDS011;848;48.354;10.064;2023-05-10T03:17:44;4.72;;;0.30;;
1701;SDS011;848;48.354;10.064;2023-05-10T03:20:16;4.90;;;0.30;;
1701;SDS011;848;48.354;10.064;2023-05-10T03:22:50;4.78;;;0.40;;
1701;SDS011;848;48.354;10.064;2023-05-10T03:25:19;4.80;;;0.40;;
1701;SDS011;848;48.354;10.064;2023-05-10T03:27:50;4.65;;;0.30;;
1701;SDS011;848;48.354;10.064;2023-05-10T03:30:18;6.10;;;0.50;;
1701;SDS011;848;48.354;10.064;2023-05-10T03:32:46;6.25;;;0.40;;
1701;SDS011;848;48.354;10.064;2023-05-10T03:35:13;4.80;;;0.30;;
1701;SDS011;848;48.354;10.064;2023-05-10T03:37:40;4.82;;;0.30;;
1701;SDS011;848;48.354;10.064;2023-05-10T03:40:07;5.28;;;0.57;;
1701;SDS011;848;48.354;10.064;2023-05-10T03:42:35;5.30;;;0.40;;
1701;SDS011;848;48.354;10.064;2023-05-10T03:45:05;4.80;;;0.40;;
1701;SDS011;848;48.354;10.064;2023-05-10T03:47:33;5.20;;;0.55;;
1701;SDS011;848;48.354;10.064;2023-05-10T03:50:00;4.72;;;0.28;;
1701;SDS011;848;48.354;10.064;2023-05-10T03:52:27;4.80;;;0.40;;
1701;SDS011;848;48.354;10.064;2023-05-10T03:54:54;5.10;;;0.55;;
1701;SDS011;848;48.354;10.064;2023-05-10T03:57:21;4.70;;;0.30;;
1701;SDS011;848;48.354;10.064;2023-05-10T03:59:48;5.20;;;0.50;;
1701;SDS011;848;48.354;10.064;2023-05-10T04:02:16;5.30;;;0.60;;
1701;SDS011;848;48.354;10.064;2023-05-10T04:04:43;5.13;;;0.50;;
1701;SDS011;848;48.354;10.064;2023-05-10T04:07:10;4.70;;;0.40;;
1701;SDS011;848;48.354;10.064;2023-05-10T04:09:37;5.22;;;0.60;;
1701;SDS011;848;48.354;10.064;2023-05-10T04:12:04;5.55;;;0.60;;
1701;SDS011;848;48.354;10.064;2023-05-10T04:14:31;8.40;;;1.23;;
1701;SDS011;848;48.354;10.064;2023-05-10T04:16:58;4.78;;;0.40;;
1701;SDS011;848;48.354;10.064;2023-05-10T04:19:29;4.75;;;0.40;;
1701;SDS011;848;48.354;10.064;2023-05-10T04:21:57;5.20;;;0.60;;
1701;SDS011;848;48.354;10.064;2023-05-10T04:24:24;5.15;;;0.75;;
1701;SDS011;848;48.354;10.064;2023-05-10T04:26:51;4.90;;;0.60;;
1701;SDS011;848;48.354;10.064;2023-05-10T04:29:20;5.07;;;0.65;;
1701;SDS011;848;48.354;10.064;2023-05-10T04:31:47;4.93;;;0.70;;
1701;SDS011;848;48.354;10.064;2023-05-10T04:34:14;4.90;;;0.65;;
1701;SDS011;848;48.354;10.064;2023-05-10T04:36:42;6.10;;;0.70;;
1701;SDS011;848;48.354;10.064;2023-05-10T04:39:09;5.07;;;0.70;;
1701;SDS011;848;48.354;10.064;2023-05-10T04:41:37;5.25;;;0.80;;
1701;SDS011;848;48.354;10.064;2023-05-10T04:44:04;5.30;;;0.70;;
1701;SDS011;848;48.354;10.064;2023-05-10T04:46:31;8.13;;;2.00;;
1701;SDS011;848;48.354;10.064;2023-05-10T04:48:58;5.10;;;0.70;;
1701;SDS011;848;48.354;10.064;2023-05-10T04:51:25;5.00;;;0.75;;
1701;SDS011;848;48.354;10.064;2023-05-10T04:53:53;4.90;;;0.60;;
1701;SDS011;848;48.354;10.064;2023-05-10T04:56:20;5.00;;;0.70;;
1701;SDS011;848;48.354;10.064;2023-05-10T04:58:47;5.13;;;0.60;;
1701;SDS011;848;48.354;10.064;2023-05-10T05:01:14;5.07;;;0.70;;
1701;SDS011;848;48.354;10.064;2023-05-10T05:03:41;4.95;;;0.60;;
1701;SDS011;848;48.354;10.064;2023-05-10T05:06:08;5.22;;;0.68;;
1701;SDS011;848;48.354;10.064;2023-05-10T05:08:35;8.43;;;0.90;;
1701;SDS011;848;48.354;10.064;2023-05-10T05:11:03;5.20;;;0.80;;
1701;SDS011;848;48.354;10.064;2023-05-10T05:13:30;6.95;;;1.00;;
1701;SDS011;848;48.354;10.064;2023-05-10T05:15:59;4.95;;;0.57;;
1701;SDS011;848;48.354;10.064;2023-05-10T05:18:27;6.82;;;1.27;;
1701;SDS011;848;48.354;10.064;2023-05-10T05:20:54;5.03;;;0.68;;
1701;SDS011;848;48.354;10.064;2023-05-10T05:23:21;5.25;;;0.80;;
1701;SDS011;848;48.354;10.064;2023-05-10T05:25:49;5.00;;;0.63;;
1701;SDS011;848;48.354;10.064;2023-05-10T05:28:19;5.10;;;0.65;;
1701;SDS011;848;48.354;10.064;2023-05-10T05:30:46;5.57;;;0.60;;
1701;SDS011;848;48.354;10.064;2023-05-10T05:33:13;5.50;;;0.70;;
1701;SDS011;848;48.354;10.064;2023-05-10T05:35:42;6.50;;;0.60;;
1701;SDS011;848;48.354;10.064;2023-05-10T05:38:15;5.30;;;0.50;;
1701;SDS011;848;48.354;10.064;2023-05-10T05:40:42;8.68;;;0.75;;
1701;SDS011;848;48.354;10.064;2023-05-10T05:43:10;5.10;;;0.90;;
1701;SDS011;848;48.354;10.064;2023-05-10T05:45:38;5.40;;;0.75;;
1701;SDS011;848;48.354;10.064;2023-05-10T05:48:05;5.10;;;0.70;;
1701;SDS011;848;48.354;10.064;2023-05-10T05:50:32;6.38;;;0.93;;
1701;SDS011;848;48.354;10.064;2023-05-10T05:52:59;7.07;;;0.65;;
1701;SDS011;848;48.354;10.064;2023-05-10T05:55:26;5.20;;;0.80;;
1701;SDS011;848;48.354;10.064;2023-05-10T05:57:54;6.57;;;0.63;;
1701;SDS011;848;48.354;10.064;2023-05-10T06:00:22;5.43;;;0.80;;
1701;SDS011;848;48.354;10.064;2023-05-10T06:02:50;5.57;;;0.90;;
1701;SDS011;848;48.354;10.064;2023-05-10T06:05:17;7.78;;;0.90;;
1701;SDS011;848;48.354;10.064;2023-05-10T06:07:45;4.97;;;0.68;;
1701;SDS011;848;48.354;10.064;2023-05-10T06:10:12;4.97;;;0.75;;
1701;SDS011;848;48.354;10.064;2023-05-10T06:12:39;5.38;;;0.75;;
1701;SDS011;848;48.354;10.064;2023-05-10T06:15:07;6.15;;;0.68;;
1701;SDS011;848;48.354;10.064;2023-05-10T06:17:34;5.25;;;0.90;;
1701;SDS011;848;48.354;10.064;2023-05-10T06:20:03;6.05;;;0.98;;
1701;SDS011;848;48.354;10.064;2023-05-10T06:22:31;6.68;;;0.82;;
1701;SDS011;848;48.354;10.064;2023-05-10T06:24:58;5.70;;;1.10;;
1701;SDS011;848;48.354;10.064;2023-05-10T06:27:25;5.32;;;0.80;;
1701;SDS011;848;48.354;10.064;2023-05-10T06:29:52;9.02;;;1.00;;
1701;SDS011;848;48.354;10.064;2023-05-10T06:32:18;5.72;;;1.00;;
1701;SDS011;848;48.354;10.064;2023-05-10T06:34:45;5.30;;;1.00;;
1701;SDS011;848;48.354;10.064;2023-05-10T06:37:14;5.38;;;0.90;;
1701;SDS011;848;48.354;10.064;2023-05-10T06:39:41;5.30;;;0.95;;
1701;SDS011;848;48.354;10.064;2023-05-10T06:42:09;5.15;;;0.85;;
1701;SDS011;848;48.354;10.064;2023-05-10T06:44:36;5.72;;;1.40;;
1701;SDS011;848;48.354;10.064;2023-05-10T06:47:03;4.95;;;0.75;;
1701;SDS011;848;48.354;10.064;2023-05-10T06:49:30;5.13;;;0.93;;
1701;SDS011;848;48.354;10.064;2023-05-10T06:51:57;5.80;;;0.90;;
1701;SDS011;848;48.354;10.064;2023-05-10T06:54:25;6.30;;;1.02;;
1701;SDS011;848;48.354;10.064;2023-05-10T06:56:52;6.85;;;1.48;;
1701;SDS011;848;48.354;10.064;2023-05-10T06:59:19;5.30;;;1.00;;
1701;SDS011;848;48.354;10.064;2023-05-10T07:01:46;5.40;;;0.90;;
1701;SDS011;848;48.354;10.064;2023-05-10T07:04:13;5.10;;;0.80;;
1701;SDS011;848;48.354;10.064;2023-05-10T07:06:40;5.50;;;1.00;;
1701;SDS011;848;48.354;10.064;2023-05-10T07:09:07;5.30;;;1.10;;
1701;SDS011;848;48.354;10.064;2023-05-10T07:11:35;5.45;;;1.25;;
1701;SDS011;848;48.354;10.064;2023-05-10T07:33:47;5.45;;;1.05;;
1701;SDS011;848;48.354;10.064;2023-05-10T07:36:14;8.60;;;0.93;;
1701;SDS011;848;48.354;10.064;2023-05-10T07:38:40;6.25;;;0.93;;
1701;SDS011;848;48.354;10.064;2023-05-10T07:41:07;7.80;;;1.80;;
1701;SDS011;848;48.354;10.064;2023-05-10T07:43:34;7.88;;;1.10;;
1701;SDS011;848;48.354;10.064;2023-05-10T07:46:01;5.85;;;1.30;;
1701;SDS011;848;48.354;10.064;2023-05-10T07:48:28;6.60;;;0.90;;
1701;SDS011;848;48.354;10.064;2023-05-10T07:50:56;5.30;;;1.25;;
1701;SDS011;848;48.354;10.064;2023-05-10T07:53:24;5.70;;;1.15;;
1701;SDS011;848;48.354;10.064;2023-05-10T07:55:52;7.68;;;1.10;;
1701;SDS011;848;48.354;10.064;2023-05-10T07:58:23;5.63;;;1.33;;
1701;SDS011;848;48.354;10.064;2023-05-10T08:00:50;5.43;;;1.00;;
1701;SDS011;848;48.354;10.064;2023-05-10T08:03:17;6.68;;;1.23;;
1701;SDS011;848;48.354;10.064;2023-05-10T08:05:44;5.68;;;0.90;;
1701;SDS011;848;48.354;10.064;2023-05-10T08:08:12;5.70;;;1.10;;
1701;SDS011;848;48.354;10.064;2023-05-10T08:10:39;8.50;;;1.30;;
1701;SDS011;848;48.354;10.064;2023-05-10T08:13:06;5.50;;;1.02;;
1701;SDS011;848;48.354;10.064;2023-05-10T08:15:32;5.55;;;1.13;;
1701;SDS011;848;48.354;10.064;2023-05-10T08:17:59;6.15;;;1.15;;
1701;SDS011;848;48.354;10.064;2023-05-10T08:20:26;5.50;;;1.30;;
1701;SDS011;848;48.354;10.064;2023-05-10T08:22:53;8.00;;;0.95;;
1701;SDS011;848;48.354;10.064;2023-05-10T08:25:21;6.35;;;1.20;;
1701;SDS011;848;48.354;10.064;2023-05-10T08:27:48;5.63;;;1.33;;
1701;SDS011;848;48.354;10.064;2023-05-10T08:30:15;5.10;;;0.90;;
1701;SDS011;848;48.354;10.064;2023-05-10T08:32:42;10.50;;;1.77;;
1701;SDS011;848;48.354;10.064;2023-05-10T08:35:09;5.70;;;1.42;;
1701;SDS011;848;48.354;10.064;2023-05-10T08:37:36;5.95;;;1.00;;
1701;SDS011;848;48.354;10.064;2023-05-10T08:40:03;6.40;;;1.42;;
1701;SDS011;848;48.354;10.064;2023-05-10T08:42:33;6.13;;;1.10;;
1701;SDS011;848;48.354;10.064;2023-05-10T08:45:03;5.30;;;0.90;;
1701;SDS011;848;48.354;10.064;2023-05-10T08:47:32;6.82;;;1.48;;
1701;SDS011;848;48.354;10.064;2023-05-10T08:50:01;8.05;;;1.02;;
1701;SDS011;848;48.354;10.064;2023-05-10T08:52:29;5.85;;;1.17;;
1701;SDS011;848;48.354;10.064;2023-05-10T08:54:58;5.70;;;1.20;;
1701;SDS011;848;48.354;10.064;2023-05-10T08:57:25;6.03;;;1.27;;
1701;SDS011;848;48.354;10.064;2023-05-10T08:59:54;6.43;;;1.58;;
1701;SDS011;848;48.354;10.064;2023-05-10T09:02:21;6.20;;;1.20;;
1701;SDS011;848;48.354;10.064;2023-05-10T09:04:50;6.35;;;1.30;;
1701;SDS011;848;48.354;10.064;2023-05-10T09:07:17;5.63;;;1.30;;
1701;SDS011;848;48.354;10.064;2023-05-10T09:09:44;5.53;;;1.10;;
1701;SDS011;848;48.354;10.064;2023-05-10T09:12:12;5.78;;;1.20;;
1701;SDS011;848;48.354;10.064;2023-05-10T09:14:40;6.57;;;1.33;;
1701;SDS011;848;48.354;10.064;2023-05-10T09:17:09;5.70;;;1.27;;
1701;SDS011;848;48.354;10.064;2023-05-10T09:19:36;5.70;;;1.20;;
1701;SDS011;848;48.354;10.064;2023-05-10T09:22:04;5.68;;;1.10;;
1701;SDS011;848;48.354;10.064;2023-05-10T09:24:31;5.40;;;0.85;;
1701;SDS011;848;48.354;10.064;2023-05-10T09:26:58;5.30;;;0.90;;
1701;SDS011;848;48.354;10.064;2023-05-10T09:29:25;6.07;;;1.13;;
1701;SDS011;848;48.354;10.064;2023-05-10T09:31:51;5.25;;;0.90;;
1701;SDS011;848;48.354;10.064;2023-05-10T09:34:22;5.00;;;0.88;;
1701;SDS011;848;48.354;10.064;2023-05-10T09:36:55;5.93;;;1.10;;
1701;SDS011;848;48.354;10.064;2023-05-10T09:39:31;8.48;;;1.05;;
1701;SDS011;848;48.354;10.064;2023-05-10T09:41:59;5.22;;;0.70;;
1701;SDS011;848;48.354;10.064;2023-05-10T09:44:28;6.85;;;0.77;;
1701;SDS011;848;48.354;10.064;2023-05-10T09:46:56;5.90;;;0.80;;
1701;SDS011;848;48.354;10.064;2023-05-10T09:49:24;8.95;;;0.82;;
1701;SDS011;848;48.354;10.064;2023-05-10T09:52:01;5.60;;;0.88;;
1701;SDS011;848;48.354;10.064;2023-05-10T09:54:28;5.95;;;0.70;;
1701;SDS011;848;48.354;10.064;2023-05-10T09:56:56;6.78;;;0.80;;
1701;SDS011;848;48.354;10.064;2023-05-10T09:59:24;5.00;;;0.57;;
1701;SDS011;848;48.354;10.064;2023-05-10T10:01:52;5.55;;;0.70;;
1701;SDS011;848;48.354;10.064;2023-05-10T10:04:21;6.20;;;0.95;;
1701;SDS011;848;48.354;10.064;2023-05-10T10:07:01;5.43;;;0.90;;
1701;SDS011;848;48.354;10.064;2023-05-10T10:09:29;4.70;;;0.52;;
1701;SDS011;848;48.354;10.064;2023-05-10T10:11:57;5.25;;;1.05;;
1701;SDS011;848;48.354;10.064;2023-05-10T10:14:25;5.07;;;0.52;;
1701;SDS011;848;48.354;10.064;2023-05-10T10:16:52;5.05;;;0.80;;
1701;SDS011;848;48.354;10.064;2023-05-10T10:19:19;5.18;;;0.70;;
1701;SDS011;848;48.354;10.064;2023-05-10T10:21:46;5.95;;;0.90;;
1701;SDS011;848;48.354;10.064;2023-05-10T10:24:15;5.32;;;0.98;;
1701;SDS011;848;48.354;10.064;2023-05-10T10:26:42;4.95;;;0.73;;
1701;SDS011;848;48.354;10.064;2023-05-10T10:29:15;6.50;;;1.20;;
1701;SDS011;848;48.354;10.064;2023-05-10T10:31:51;4.90;;;0.60;;
1701;SDS011;848;48.354;10.064;2023-05-10T10:34:26;5.47;;;0.95;;
1701;SDS011;848;48.354;10.064;2023-05-10T10:36:55;5.00;;;0.90;;
1701;SDS011;848;48.354;10.064;2023-05-10T10:39:24;6.20;;;0.60;;
1701;SDS011;848;48.354;10.064;2023-05-10T10:41:53;5.32;;;0.50;;
1701;SDS011;848;48.354;10.064;2023-05-10T10:44:24;4.95;;;0.57;;
1701;SDS011;848;48.354;10.064;2023-05-10T10:50:02;4.70;;;0.40;;
1701;SDS011;848;48.354;10.064;2023-05-10T10:52:31;4.93;;;0.65;;
1701;SDS011;848;48.354;10.064;2023-05-10T10:55:01;5.00;;;0.50;;
1701;SDS011;848;48.354;10.064;2023-05-10T10:57:33;5.75;;;0.50;;
1701;SDS011;848;48.354;10.064;2023-05-10T11:00:19;5.43;;;0.50;;
1701;SDS011;848;48.354;10.064;2023-05-10T11:02:49;5.43;;;0.50;;
1701;SDS011;848;48.354;10.064;2023-05-10T11:05:24;5.65;;;0.55;;
1701;SDS011;848;48.354;10.064;2023-05-10T11:08:06;5.00;;;0.60;;
1701;SDS011;848;48.354;10.064;2023-05-10T11:10:37;5.00;;;0.60;;
1701;SDS011;848;48.354;10.064;2023-05-10T11:13:05;7.13;;;0.40;;
1701;SDS011;848;48.354;10.064;2023-05-10T11:15:33;4.90;;;0.50;;
1701;SDS011;848;48.354;10.064;2023-05-10T11:18:16;5.10;;;0.73;;
1701;SDS011;848;48.354;10.064;2023-05-10T11:20:43;4.57;;;0.43;;
1701;SDS011;848;48.354;10.064;2023-05-10T11:23:12;6.22;;;0.80;;
1701;SDS011;848;48.354;10.064;2023-05-10T11:25:43;5.05;;;0.68;;
1701;SDS011;848;48.354;10.064;2023-05-10T11:28:10;5.57;;;1.00;;
1701;SDS011;848;48.354;10.064;2023-05-10T11:30:38;5.00;;;0.75;;
1701;SDS011;848;48.354;10.064;2023-05-10T11:33:06;5.10;;;0.70;;
1701;SDS011;848;48.354;10.064;2023-05-10T11:35:36;5.68;;;1.20;;
1701;SDS011;848;48.354;10.064;2023-05-10T11:38:05;6.00;;;0.70;;
1701;SDS011;848;48.354;10.064;2023-05-10T11:40:33;6.30;;;0.80;;
1701;SDS011;848;48.354;10.064;2023-05-10T11:43:01;5.20;;;0.80;;
1701;SDS011;848;48.354;10.064;2023-05-10T11:45:29;7.15;;;0.85;;
1701;SDS011;848;48.354;10.064;2023-05-10T11:47:58;5.25;;;0.90;;
1701;SDS011;848;48.354;10.064;2023-05-10T11:50:25;8.45;;;1.02;;
1701;SDS011;848;48.354;10.064;2023-05-10T11:52:53;4.80;;;0.75;;
1701;SDS011;848;48.354;10.064;2023-05-10T11:55:21;5.40;;;0.80;;
1701;SDS011;848;48.354;10.064;2023-05-10T11:57:51;8.75;;;0.98;;
1701;SDS011;848;48.354;10.064;2023-05-10T12:00:20;10.27;;;0.98;;
1701;SDS011;848;48.354;10.064;2023-05-10T12:02:47;6.45;;;0.73;;
1701;SDS011;848;48.354;10.064;2023-05-10T12:05:15;4.72;;;0.55;;
1701;SDS011;848;48.354;10.064;2023-05-10T12:07:42;4.80;;;0.60;;
1701;SDS011;848;48.354;10.064;2023-05-10T12:10:10;5.20;;;0.80;;
1701;SDS011;848;48.354;10.064;2023-05-10T12:12:39;5.32;;;0.70;;
1701;SDS011;848;48.354;10.064;2023-05-10T12:15:11;6.07;;;0.70;;
1701;SDS011;848;48.354;10.064;2023-05-10T12:17:40;4.80;;;0.60;;
1701;SDS011;848;48.354;10.064;2023-05-10T12:20:13;5.18;;;1.00;;
1701;SDS011;848;48.354;10.064;2023-05-10T12:22:43;7.20;;;0.90;;
1701;SDS011;848;48.354;10.064;2023-05-10T12:25:11;12.30;;;1.13;;
1701;SDS011;848;48.354;10.064;2023-05-10T12:27:38;5.20;;;0.73;;
1701;SDS011;848;48.354;10.064;2023-05-10T12:30:05;4.90;;;0.60;;
1701;SDS011;848;48.354;10.064;2023-05-10T12:32:41;4.75;;;0.50;;
1701;SDS011;848;48.354;10.064;2023-05-10T12:35:08;6.10;;;0.63;;
1701;SDS011;848;48.354;10.064;2023-05-10T12:37:36;6.85;;;0.50;;
1701;SDS011;848;48.354;10.064;2023-05-10T12:40:05;5.30;;;0.70;;
1701;SDS011;848;48.354;10.064;2023-05-10T12:42:34;5.25;;;0.60;;
1701;SDS011;848;48.354;10.064;2023-05-10T12:45:01;5.50;;;1.10;;
1701;SDS011;848;48.354;10.064;2023-05-10T12:47:29;6.32;;;0.77;;
1701;SDS011;848;48.354;10.064;2023-05-10T12:49:57;5.00;;;0.60;;
1701;SDS011;848;48.354;10.064;2023-05-10T12:52:25;5.10;;;0.60;;
1701;SDS011;848;48.354;10.064;2023-05-10T12:54:52;5.00;;;0.60;;
1701;SDS011;848;48.354;10.064;2023-05-10T12:57:19;5.90;;;0.68;;
1701;SDS011;848;48.354;10.064;2023-05-10T12:59:46;5.38;;;0.70;;
1701;SDS011;848;48.354;10.064;2023-05-10T13:02:13;4.82;;;0.70;;
1701;SDS011;848;48.354;10.064;2023-05-10T13:04:42;5.45;;;0.70;;
1701;SDS011;848;48.354;10.064;2023-05-10T13:07:11;6.22;;;0.73;;
1701;SDS011;848;48.354;10.064;2023-05-10T13:09:38;6.35;;;0.73;;
1701;SDS011;848;48.354;10.064;2023-05-10T13:12:05;5.05;;;0.85;;
1701;SDS011;848;48.354;10.064;2023-05-10T13:14:32;4.90;;;0.60;;
1701;SDS011;848;48.354;10.064;2023-05-10T13:16:59;6.65;;;1.20;;
1701;SDS011;848;48.354;10.064;2023-05-10T13:19:25;6.50;;;1.20;;
1701;SDS011;848;48.354;10.064;2023-05-10T13:21:52;5.10;;;1.20;;
1701;SDS011;848;48.354;10.064;2023-05-10T13:24:21;6.38;;;1.10;;
1701;SDS011;848;48.354;10.064;2023-05-10T13:26:48;5.65;;;0.90;;
1701;SDS011;848;48.354;10.064;2023-05-10T13:29:14;7.05;;;1.10;;
1701;SDS011;848;48.354;10.064;2023-05-10T13:31:43;6.25;;;1.20;;
1701;SDS011;848;48.354;10.064;2023-05-10T13:34:10;5.20;;;1.10;;
1701;SDS011;848;48.354;10.064;2023-05-10T13:36:37;5.45;;;0.98;;
1701;SDS011;848;48.354;10.064;2023-05-10T13:39:04;8.23;;;0.77;;
1701;SDS011;848;48.354;10.064;2023-05-10T13:41:32;5.97;;;1.02;;
1701;SDS011;848;48.354;10.064;2023-05-10T13:43:59;5.50;;;0.98;;
1701;SDS011;848;48.354;10.064;2023-05-10T13:46:26;5.07;;;0.60;;
1701;SDS011;848;48.354;10.064;2023-05-10T13:48:53;5.45;;;1.15;;
1701;SDS011;848;48.354;10.064;2023-05-10T13:51:20;5.40;;;0.63;;
1701;SDS011;848;48.354;10.064;2023-05-10T13:53:47;7.70;;;1.00;;
1701;SDS011;848;48.354;10.064;2023-05-10T13:56:14;5.15;;;0.70;;
1701;SDS011;848;48.354;10.064;2023-05-10T13:58:42;5.50;;;0.98;;
1701;SDS011;848;48.354;10.064;2023-05-10T14:01:09;5.50;;;0.90;;
1701;SDS011;848;48.354;10.064;2023-05-10T14:03:37;5.40;;;0.90;;
1701;SDS011;848;48.354;10.064;2023-05-10T14:06:04;5.60;;;0.90;;
1701;SDS011;848;48.354;10.064;2023-05-10T14:08:32;6.78;;;1.30;;
1701;SDS011;848;48.354;10.064;2023-05-10T14:10:59;6.75;;;1.58;;
1701;SDS011;848;48.354;10.064;2023-05-10T14:13:26;5.50;;;1.00;;
1701;SDS011;848;48.354;10.064;2023-05-10T14:15:55;9.93;;;1.35;;
1701;SDS011;848;48.354;10.064;2023-05-10T14:18:22;5.60;;;1.00;;
1701;SDS011;848;48.354;10.064;2023-05-10T14:20:48;5.40;;;1.20;;
1701;SDS011;848;48.354;10.064;2023-05-10T14:23:15;8.40;;;1.10;;
1701;SDS011;848;48.354;10.064;2023-05-10T14:25:44;5.70;;;1.00;;
1701;SDS011;848;48.354;10.064;2023-05-10T14:28:11;7.47;;;1.33;;
1701;SDS011;848;48.354;10.064;2023-05-10T14:30:38;5.60;;;1.55;;
1701;SDS011;848;48.354;10.064;2023-05-10T14:33:06;5.85;;;1.00;;
1701;SDS011;848;48.354;10.064;2023-05-10T14:35:33;6.60;;;1.40;;
1701;SDS011;848;48.354;10.064;2023-05-10T14:38:01;6.40;;;0.93;;
1701;SDS011;848;48.354;10.064;2023-05-10T14:40:28;6.60;;;1.30;;
1701;SDS011;848;48.354;10.064;2023-05-10T14:42:55;5.68;;;1.10;;
1701;SDS011;848;48.354;10.064;2023-05-10T14:45:22;6.57;;;2.00;;
1701;SDS011;848;48.354;10.064;2023-05-10T14:47:49;5.72;;;1.20;;
1701;SDS011;848;48.354;10.064;2023-05-10T14:50:18;5.57;;;1.20;;
1701;SDS011;848;48.354;10.064;2023-05-10T14:52:46;7.05;;;1.27;;
1701;SDS011;848;48.354;10.064;2023-05-10T14:55:12;5.80;;;0.95;;
1701;SDS011;848;48.354;10.064;2023-05-10T14:57:39;6.70;;;1.00;;
1701;SDS011;848;48.354;10.064;2023-05-10T15:00:07;5.50;;;1.10;;
1701;SDS011;848;48.354;10.064;2023-05-10T15:02:34;7.85;;;1.00;;
1701;SDS011;848;48.354;10.064;2023-05-10T15:05:01;5.72;;;1.10;;
1701;SDS011;848;48.354;10.064;2023-05-10T15:07:30;6.13;;;1.10;;
1701;SDS011;848;48.354;10.064;2023-05-10T15:09:56;6.78;;;1.10;;
1701;SDS011;848;48.354;10.064;2023-05-10T15:12:23;5.72;;;1.70;;
1701;SDS011;848;48.354;10.064;2023-05-10T15:14:50;6.82;;;2.40;;
1701;SDS011;848;48.354;10.064;2023-05-10T15:17:17;16.00;;;5.30;;
1701;SDS011;848;48.354;10.064;2023-05-10T15:19:44;14.23;;;5.30;;
1701;SDS011;848;48.354;10.064;2023-05-10T15:22:11;15.98;;;6.70;;
1701;SDS011;848;48.354;10.064;2023-05-10T15:24:39;8.05;;;2.25;;
1701;SDS011;848;48.354;10.064;2023-05-10T15:27:06;5.95;;;1.60;;
1701;SDS011;848;48.354;10.064;2023-05-10T15:29:33;6.90;;;2.05;;
1701;SDS011;848;48.354;10.064;2023-05-10T15:32:01;7.38;;;1.98;;
1701;SDS011;848;48.354;10.064;2023-05-10T15:34:28;8.45;;;2.53;;
1701;SDS011;848;48.354;10.064;2023-05-10T15:36:55;7.60;;;2.17;;
1701;SDS011;848;48.354;10.064;2023-05-10T15:39:22;6.25;;;1.60;;
1701;SDS011;848;48.354;10.064;2023-05-10T15:41:50;7.45;;;2.22;;
1701;SDS011;848;48.354;10.064;2023-05-10T15:44:26;7.38;;;2.25;;
1701;SDS011;848;48.354;10.064;2023-05-10T15:50:06;11.73;;;2.10;;
1701;SDS011;848;48.354;10.064;2023-05-10T15:52:39;7.65;;;1.65;;
1701;SDS011;848;48.354;10.064;2023-05-10T15:55:07;7.25;;;1.98;;